Kyoto, Japan

1:27 PM JST on April 24, 2017 (GMT +0900)
Southeast Portland | | Change Station

Elev 164 ft 35.02 °N, 135.72 °E | Updated 2 minutes ago

Partly Cloudy
Partly Cloudy
68.7 °F
Feels Like 68.7 °F
N
1.9
Wind Variable Wind from WSW
Gusts 4.3 mph

Today
High -- | Low -- °F
--% Chance of Precip.
Yesterday
High -- | Low -- °F
Precip. -- in
Pressure 30.21 in
Visibility 6.2 miles
Clouds Few 3500 ft
Dew Point 47 °F
Humidity 45%
Rainfall 0.00 in
Snow Depth Not available.
5:14 AM 6:36 PM
Waning Crescent, 8% visible
METAR RJOO 240400Z 24005KT 170V320 9999 FEW035 23/01 Q1023 RMK 1CU035 A3021
Pressure 30.21 in
Visibility 6.2 miles
Clouds Few 3500 ft
Dew Point 47 °F
Humidity 45%
Rainfall 0.00 in
Snow Depth Not available.
5:14 AM 6:36 PM
Waning Crescent, 8% visible
METAR RJOO 240400Z 24005KT 170V320 9999 FEW035 23/01 Q1023 RMK 1CU035 A3021

Get Severe Weather Alerts

Thanks for signing up!

Be on the lookout for a verification email in your inbox.

You'll start receiving the daily forecast at 8 AM.

×

10-Day Weather Forecast

No radar image for this location.
×

Almanac

Astronomy

Apr. 24, 2017 Rise Set
Actual Time
Civil Twilight
Nautical Twilight
Astronomical Twilight
Moon
Length of Visible Light
Length of Day
Tomorrow will be .
, % of the Moon is Illuminated

Today's Extremes

Country Highs Country Lows

Community

WunderPhotos

WunderBlog® & News

Nearby

Air Quality

  Air Quality AQ Index Pollutant
Not available.

Snow Depth

Station Depth Elevation

Earthquake Activity

City Distance Mag. Time & Date
Minimum magnitude displayed is 2.5.

Coastal Water Temperatures

Place Temperature

Stations

Nearby Weather Stations

Station Location Temp. Windchill Dew Point Humidity Wind Precip. Elev Updated Type